Time;durP1;ratioP1;P1;durP2;ratioP2;P2;SDS_P1;SDS_P2;PMS_P1;PMS_P2;Temp;Humidity;BMP_temperature;BMP_pressure;BME280_temperature;BME280_humidity;BME280_pressure;Samples;Min_cycle;Max_cycle;Signal;HPM_P1;HPM_P2
2021/09/12 00:00:12;;;;;;;33.37;20.37;;;15.90;99.90;;;;;;5080998;28;21041;-87
2021/09/12 00:02:39;;;;;;;81.37;20.83;;;15.90;99.90;;;;;;5084281;28;21193;-86
2021/09/12 00:05:07;;;;;;;41.80;17.83;;;15.90;99.90;;;;;;5087862;28;20627;-86
2021/09/12 00:07:34;;;;;;;195.90;27.57;;;15.90;99.90;;;;;;5084741;28;20644;-87
2021/09/12 00:10:02;;;;;;;143.40;28.27;;;15.90;99.90;;;;;;5084186;28;20644;-87
2021/09/12 00:12:29;;;;;;;90.77;24.30;;;15.90;99.90;;;;;;5083532;28;20612;-86
2021/09/12 00:14:56;;;;;;;76.03;21.80;;;15.90;99.90;;;;;;5090980;28;21168;-86
2021/09/12 00:17:23;;;;;;;214.00;26.13;;;16.00;99.90;;;;;;5080415;28;20615;-86
2021/09/12 00:19:49;;;;;;;104.20;24.50;;;16.00;99.90;;;;;;5088953;28;20639;-86
2021/09/12 00:22:16;;;;;;;137.37;24.17;;;16.00;99.90;;;;;;5081401;28;20703;-85
2021/09/12 00:24:43;;;;;;;91.10;23.07;;;16.00;99.90;;;;;;5081281;28;20628;-86
2021/09/12 00:27:12;;;;;;;126.13;22.30;;;15.90;99.90;;;;;;5084818;28;20651;-87
2021/09/12 00:29:39;;;;;;;122.97;21.60;;;15.90;99.90;;;;;;5083917;28;20632;-86
2021/09/12 00:32:06;;;;;;;147.53;26.57;;;15.90;99.90;;;;;;5087392;28;20623;-86
2021/09/12 00:34:32;;;;;;;83.63;22.73;;;15.90;99.90;;;;;;5086748;28;20628;-87
2021/09/12 00:36:59;;;;;;;47.87;20.63;;;15.80;99.90;;;;;;5090142;28;20631;-87
2021/09/12 00:39:26;;;;;;;47.00;19.20;;;15.80;99.90;;;;;;5088592;28;20624;-86
2021/09/12 00:41:53;;;;;;;63.33;21.47;;;15.90;99.90;;;;;;5090603;28;21021;-86
2021/09/12 00:44:24;;;;;;;87.13;21.07;;;15.80;99.90;;;;;;5087484;28;20641;-87
2021/09/12 00:46:52;;;;;;;72.47;21.03;;;15.80;99.90;;;;;;5080901;28;20592;-86
2021/09/12 00:49:19;;;;;;;33.77;18.67;;;15.90;99.90;;;;;;5081136;28;20731;-86
2021/09/12 00:51:46;;;;;;;46.70;17.90;;;15.80;99.90;;;;;;5087050;28;20612;-87
2021/09/12 00:54:14;;;;;;;81.97;18.53;;;15.80;99.90;;;;;;5088825;28;22552;-86
2021/09/12 00:56:43;;;;;;;63.60;18.00;;;15.70;99.90;;;;;;5091726;28;20627;-87
2021/09/12 00:59:12;;;;;;;96.03;22.40;;;15.70;99.90;;;;;;5082301;28;20640;-86
2021/09/12 01:01:42;;;;;;;119.37;19.60;;;15.70;99.90;;;;;;5084929;28;20672;-86
2021/09/12 01:04:11;;;;;;;41.47;18.63;;;15.70;99.90;;;;;;5085843;28;20636;-87
2021/09/12 01:06:38;;;;;;;137.63;21.33;;;15.70;99.90;;;;;;5086469;28;20617;-86
2021/09/12 01:09:05;;;;;;;64.80;17.80;;;15.70;99.90;;;;;;5086263;28;20636;-87
2021/09/12 01:11:32;;;;;;;59.37;18.33;;;15.70;99.90;;;;;;5089645;28;20640;-87
2021/09/12 01:13:59;;;;;;;73.43;18.83;;;15.70;99.90;;;;;;5084369;28;21236;-86
2021/09/12 01:16:26;;;;;;;29.07;16.23;;;15.70;99.90;;;;;;5084945;28;20632;-87
2021/09/12 01:18:54;;;;;;;150.30;20.67;;;15.70;99.90;;;;;;5083979;28;21311;-87
2021/09/12 01:21:23;;;;;;;59.20;17.30;;;15.60;99.90;;;;;;5083616;28;20675;-87
2021/09/12 01:23:50;;;;;;;64.50;18.13;;;15.60;99.90;;;;;;5088334;28;20632;-86
2021/09/12 01:26:22;;;;;;;46.37;16.97;;;15.50;99.90;;;;;;5088583;28;20639;-86
2021/09/12 01:28:50;;;;;;;22.70;16.97;;;15.60;99.90;;;;;;5079700;28;20636;-87
2021/09/12 01:31:22;;;;;;;43.43;17.33;;;15.60;99.90;;;;;;5083108;28;20644;-86
2021/09/12 01:33:48;;;;;;;60.87;17.83;;;15.50;99.90;;;;;;5076911;28;20852;-87
2021/09/12 01:36:16;;;;;;;189.70;23.67;;;15.50;99.90;;;;;;5087078;28;20636;-86
2021/09/12 01:38:44;;;;;;;164.23;24.57;;;15.50;99.90;;;;;;5078070;28;20636;-86
2021/09/12 01:41:11;;;;;;;41.20;18.70;;;15.50;99.90;;;;;;5086232;28;21586;-86
2021/09/12 01:43:46;;;;;;;17.30;15.40;;;15.50;99.90;;;;;;5084361;28;20644;-87
2021/09/12 01:46:13;;;;;;;15.47;14.07;;;15.50;99.90;;;;;;5084591;28;20628;-86
2021/09/12 01:48:40;;;;;;;16.30;15.00;;;15.40;99.90;;;;;;5085106;28;20608;-86
2021/09/12 01:51:06;;;;;;;16.70;15.40;;;15.40;99.90;;;;;;5089713;28;20646;-86
2021/09/12 01:53:33;;;;;;;16.07;14.67;;;15.40;99.90;;;;;;5086645;28;21464;-86
2021/09/12 01:56:00;;;;;;;22.87;16.13;;;15.40;99.90;;;;;;5086771;28;20635;-85
2021/09/12 01:58:27;;;;;;;61.63;19.73;;;15.40;99.90;;;;;;5093291;28;20628;-86
2021/09/12 02:00:56;;;;;;;18.10;16.30;;;15.40;99.90;;;;;;5084635;28;20675;-86
2021/09/12 02:03:23;;;;;;;17.90;16.20;;;15.40;99.90;;;;;;5091582;28;20639;-86
2021/09/12 02:05:50;;;;;;;17.90;15.90;;;15.40;99.90;;;;;;5085129;28;20627;-86
2021/09/12 02:08:17;;;;;;;18.87;16.83;;;15.40;99.90;;;;;;5087230;28;20967;-85
2021/09/12 02:10:44;;;;;;;16.37;14.97;;;15.40;99.90;;;;;;5087418;28;20674;-86
2021/09/12 02:13:11;;;;;;;16.13;14.73;;;15.40;99.90;;;;;;5088096;28;20635;-86
2021/09/12 02:15:38;;;;;;;15.53;14.33;;;15.40;99.90;;;;;;5084030;28;20617;-85
2021/09/12 02:18:08;;;;;;;16.00;14.70;;;15.40;99.90;;;;;;5083566;28;20647;-86
2021/09/12 02:20:35;;;;;;;16.57;15.27;;;15.40;99.90;;;;;;5087030;28;20651;-85
2021/09/12 02:23:02;;;;;;;16.37;15.00;;;15.30;99.90;;;;;;5087953;28;20721;-85
2021/09/12 02:25:28;;;;;;;17.20;15.70;;;15.30;99.90;;;;;;5084080;28;20698;-86
2021/09/12 02:27:55;;;;;;;16.80;15.40;;;15.20;99.90;;;;;;5086606;28;20644;-85
2021/09/12 02:30:22;;;;;;;17.60;16.00;;;15.30;99.90;;;;;;5083242;28;20652;-86
2021/09/12 02:32:49;;;;;;;17.30;16.00;;;15.20;99.90;;;;;;5085613;28;20624;-86
2021/09/12 02:35:17;;;;;;;16.63;15.30;;;15.30;99.90;;;;;;5083564;28;20623;-86
2021/09/12 02:37:44;;;;;;;17.13;15.53;;;15.30;99.90;;;;;;5087666;28;20631;-87
2021/09/12 02:40:12;;;;;;;17.70;16.10;;;15.20;99.90;;;;;;5086094;28;20660;-87
2021/09/12 02:42:39;;;;;;;16.93;15.53;;;15.20;99.90;;;;;;5082372;28;20660;-87
2021/09/12 02:45:07;;;;;;;17.07;15.67;;;15.30;99.90;;;;;;5087161;28;20624;-87
2021/09/12 02:47:34;;;;;;;17.90;16.43;;;15.20;99.90;;;;;;5087352;28;20625;-87
2021/09/12 02:50:01;;;;;;;18.90;17.47;;;15.20;99.90;;;;;;5085848;28;20702;-87
2021/09/12 02:52:30;;;;;;;17.47;16.10;;;15.20;99.90;;;;;;5083619;28;20624;-87
2021/09/12 02:54:57;;;;;;;16.90;15.60;;;15.10;99.90;;;;;;5085998;28;20824;-86
2021/09/12 02:57:24;;;;;;;16.60;15.30;;;15.20;99.90;;;;;;5087052;28;20612;-87
2021/09/12 02:59:51;;;;;;;15.77;14.57;;;15.20;99.90;;;;;;5088659;28;20643;-87
2021/09/12 03:02:18;;;;;;;18.37;16.97;;;15.20;99.90;;;;;;5088753;28;20660;-87
2021/09/12 03:04:45;;;;;;;19.03;17.30;;;15.20;99.90;;;;;;5087213;28;20623;-87
2021/09/12 03:07:12;;;;;;;16.90;15.67;;;15.20;99.90;;;;;;5084862;28;20663;-87
2021/09/12 03:09:40;;;;;;;19.57;17.63;;;15.30;99.90;;;;;;5087602;28;20696;-87
2021/09/12 03:12:07;;;;;;;18.33;16.83;;;15.20;99.90;;;;;;5087264;28;20639;-86
2021/09/12 03:14:34;;;;;;;18.67;17.23;;;15.20;99.90;;;;;;5084171;28;20733;-86
2021/09/12 03:17:00;;;;;;;18.50;17.10;;;15.20;99.90;;;;;;5086656;28;20624;-88
2021/09/12 03:19:27;;;;;;;18.97;17.40;;;15.20;99.90;;;;;;5083708;28;20632;-86
2021/09/12 03:21:54;;;;;;;20.03;18.43;;;15.10;99.90;;;;;;5087016;28;20671;-86
2021/09/12 03:24:21;;;;;;;20.93;19.17;;;15.10;99.90;;;;;;5089265;28;20624;-88
2021/09/12 03:26:49;;;;;;;21.30;19.70;;;15.00;99.90;;;;;;5085016;28;20651;-86
2021/09/12 03:29:16;;;;;;;22.43;20.10;;;15.00;99.90;;;;;;5085971;28;20636;-87
2021/09/12 03:31:43;;;;;;;23.60;19.47;;;15.10;99.90;;;;;;5088561;28;20655;-86
2021/09/12 03:34:09;;;;;;;22.57;20.47;;;15.10;99.90;;;;;;5081926;28;20628;-86
2021/09/12 03:36:36;;;;;;;25.53;19.37;;;15.00;99.90;;;;;;5088220;28;20644;-86
2021/09/12 03:39:03;;;;;;;24.83;22.23;;;15.00;99.90;;;;;;5087004;28;21031;-87
2021/09/12 03:41:30;;;;;;;21.33;19.53;;;14.90;99.90;;;;;;5086390;28;20695;-88
2021/09/12 03:43:58;;;;;;;21.90;19.70;;;14.80;99.90;;;;;;5082418;28;20636;-87
2021/09/12 03:46:25;;;;;;;20.30;18.60;;;15.00;99.90;;;;;;5084740;28;20632;-87
2021/09/12 03:48:52;;;;;;;18.13;16.73;;;14.90;99.90;;;;;;5084684;28;20636;-86
2021/09/12 03:51:19;;;;;;;18.90;17.40;;;15.00;99.90;;;;;;5086614;28;20659;-87
2021/09/12 03:53:46;;;;;;;20.50;18.50;;;15.00;99.90;;;;;;5081888;28;20628;-88
2021/09/12 03:56:13;;;;;;;19.90;18.17;;;14.90;99.90;;;;;;5087495;28;20639;-88
2021/09/12 03:58:40;;;;;;;21.27;19.47;;;15.00;99.90;;;;;;5081687;28;20645;-87
2021/09/12 04:01:08;;;;;;;21.87;19.77;;;14.90;99.90;;;;;;5086519;28;20640;-87
2021/09/12 04:03:35;;;;;;;20.43;18.30;;;14.90;99.90;;;;;;5087168;28;20695;-87
2021/09/12 04:06:02;;;;;;;18.50;16.93;;;15.00;99.90;;;;;;5083847;28;20612;-86
2021/09/12 04:08:29;;;;;;;20.30;18.60;;;14.90;99.90;;;;;;5086772;28;20822;-87
2021/09/12 04:10:56;;;;;;;19.77;17.97;;;15.00;99.90;;;;;;5083715;28;20998;-86
2021/09/12 04:13:24;;;;;;;19.90;18.27;;;14.90;99.90;;;;;;5082122;28;20636;-88
2021/09/12 04:15:50;;;;;;;19.87;18.10;;;14.90;99.90;;;;;;5083629;28;20628;-87
2021/09/12 04:18:19;;;;;;;19.87;18.13;;;14.90;99.90;;;;;;5079413;28;21192;-87
2021/09/12 04:20:46;;;;;;;19.67;17.70;;;14.90;99.90;;;;;;5087373;28;20654;-87
2021/09/12 04:23:13;;;;;;;23.57;17.93;;;14.90;99.90;;;;;;5085987;28;20659;-88
2021/09/12 04:25:39;;;;;;;24.70;18.70;;;15.00;99.90;;;;;;5087747;28;20641;-87
2021/09/12 04:28:06;;;;;;;24.00;18.30;;;14.80;99.90;;;;;;5085373;28;21485;-86
2021/09/12 04:30:34;;;;;;;25.43;18.07;;;14.70;99.90;;;;;;5088690;28;20655;-87
2021/09/12 04:33:01;;;;;;;35.63;17.97;;;14.80;99.90;;;;;;5084365;28;20624;-86
2021/09/12 04:35:29;;;;;;;18.90;17.03;;;14.70;99.90;;;;;;5087518;28;20620;-87
2021/09/12 04:37:56;;;;;;;20.87;17.20;;;14.70;99.90;;;;;;5080051;28;20624;-88
2021/09/12 04:40:23;;;;;;;18.17;16.47;;;14.80;99.90;;;;;;5087435;28;21056;-87
2021/09/12 04:42:50;;;;;;;21.80;15.83;;;14.70;99.90;;;;;;5082293;28;20680;-87
2021/09/12 04:45:17;;;;;;;55.30;17.27;;;14.70;99.90;;;;;;5084558;28;20620;-86
2021/09/12 04:47:43;;;;;;;23.90;15.73;;;14.60;99.90;;;;;;5085343;28;20607;-87
2021/09/12 04:50:11;;;;;;;44.23;17.40;;;14.50;99.90;;;;;;5083162;28;20659;-86
2021/09/12 04:52:39;;;;;;;101.20;20.70;;;14.50;99.90;;;;;;5085760;28;20719;-86
2021/09/12 04:55:07;;;;;;;73.07;19.93;;;14.50;99.90;;;;;;5083057;28;20634;-87
2021/09/12 04:57:33;;;;;;;31.13;18.60;;;14.50;99.90;;;;;;5085055;28;20992;-86
2021/09/12 05:00:04;;;;;;;41.13;19.77;;;14.40;99.90;;;;;;5084872;28;21390;-87
2021/09/12 05:02:31;;;;;;;45.83;19.33;;;14.50;99.90;;;;;;5084978;28;20765;-86
2021/09/12 05:04:58;;;;;;;26.43;17.73;;;14.50;99.90;;;;;;5087223;28;20624;-86
2021/09/12 05:07:25;;;;;;;27.10;17.43;;;14.50;99.90;;;;;;5085102;28;20627;-85
2021/09/12 05:09:53;;;;;;;160.53;22.13;;;14.60;99.90;;;;;;5081613;28;20664;-86
2021/09/12 05:12:20;;;;;;;404.43;31.80;;;14.50;99.90;;;;;;5088607;28;21172;-85
2021/09/12 05:14:46;;;;;;;182.40;24.60;;;14.40;99.90;;;;;;5088745;28;20615;-86
2021/09/12 05:17:13;;;;;;;42.17;18.07;;;14.50;99.90;;;;;;5088409;28;20708;-86
2021/09/12 05:19:40;;;;;;;49.97;18.67;;;14.50;99.90;;;;;;5088888;28;20644;-86
2021/09/12 05:22:07;;;;;;;37.07;17.63;;;14.60;99.90;;;;;;5088314;28;20663;-86
2021/09/12 05:24:34;;;;;;;33.90;17.07;;;14.60;99.90;;;;;;5089860;28;21308;-87
2021/09/12 05:27:02;;;;;;;31.87;17.30;;;14.60;99.90;;;;;;5090283;28;20642;-85
2021/09/12 05:29:29;;;;;;;45.93;16.50;;;14.50;99.90;;;;;;5087605;28;20663;-88
2021/09/12 05:31:55;;;;;;;49.97;16.40;;;14.50;99.90;;;;;;5086435;28;20620;-88
2021/09/12 05:34:22;;;;;;;17.13;15.57;;;14.50;99.90;;;;;;5084423;28;20616;-87
2021/09/12 05:36:50;;;;;;;35.47;15.90;;;14.40;99.90;;;;;;5088360;28;20631;-88
2021/09/12 05:39:17;;;;;;;24.57;15.30;;;14.40;99.90;;;;;;5090090;28;20624;-86
2021/09/12 05:41:44;;;;;;;48.27;18.50;;;14.40;99.90;;;;;;5087528;28;21255;-86
2021/09/12 05:44:13;;;;;;;38.10;16.37;;;14.50;99.90;;;;;;5091614;28;20636;-86
2021/09/12 05:46:40;;;;;;;28.23;17.30;;;14.40;99.90;;;;;;5087695;28;20636;-87
2021/09/12 05:49:06;;;;;;;54.50;18.63;;;14.50;99.90;;;;;;5090576;28;20631;-88
2021/09/12 05:51:34;;;;;;;35.10;18.77;;;14.50;99.90;;;;;;5087918;28;21198;-87
2021/09/12 05:54:01;;;;;;;25.60;19.00;;;14.50;99.90;;;;;;5090013;28;20623;-86
2021/09/12 05:56:28;;;;;;;19.87;17.83;;;14.60;99.90;;;;;;5089405;28;20614;-86
2021/09/12 05:58:55;;;;;;;22.10;17.83;;;14.60;99.90;;;;;;5087317;28;20634;-88
2021/09/12 06:01:30;;;;;;;20.93;18.10;;;14.60;99.90;;;;;;5093586;28;20654;-90
2021/09/12 06:03:57;;;;;;;45.50;17.97;;;14.50;99.90;;;;;;5098122;28;20601;-89
2021/09/12 06:06:25;;;;;;;23.97;15.40;;;14.60;99.90;;;;;;5096555;28;20631;-88
2021/09/12 06:08:53;;;;;;;89.17;17.70;;;14.60;99.90;;;;;;5105117;28;20731;-88
2021/09/12 06:11:20;;;;;;;18.10;16.20;;;14.60;99.90;;;;;;5103700;28;20647;-88
2021/09/12 06:13:47;;;;;;;39.77;16.10;;;14.50;99.90;;;;;;5106825;28;20703;-88
2021/09/12 06:16:14;;;;;;;79.67;16.80;;;14.40;99.90;;;;;;5092361;28;20623;-87
2021/09/12 06:18:42;;;;;;;27.33;14.90;;;14.40;99.90;;;;;;5088882;28;20643;-88
2021/09/12 06:21:09;;;;;;;52.50;15.30;;;14.50;99.90;;;;;;5090196;28;21424;-88
2021/09/12 06:23:36;;;;;;;32.93;13.10;;;14.40;99.90;;;;;;5094386;28;20755;-89
2021/09/12 06:26:04;;;;;;;27.57;12.00;;;14.40;99.90;;;;;;5087657;28;20625;-88
2021/09/12 06:28:31;;;;;;;51.37;12.40;;;14.40;99.90;;;;;;5085500;28;20758;-88
2021/09/12 06:30:59;;;;;;;23.13;12.10;;;14.50;99.90;;;;;;5089303;28;21231;-88
2021/09/12 06:33:27;;;;;;;67.90;12.60;;;14.50;99.90;;;;;;5085940;28;20660;-87
2021/09/12 06:35:56;;;;;;;25.77;11.70;;;14.50;99.90;;;;;;5088611;28;20612;-86
2021/09/12 06:38:23;;;;;;;31.47;10.87;;;14.50;99.90;;;;;;5090348;28;20595;-89
2021/09/12 06:40:51;;;;;;;25.03;11.00;;;14.50;99.90;;;;;;5087329;28;21033;-89
2021/09/12 06:43:18;;;;;;;14.13;8.93;;;14.50;99.90;;;;;;5091392;28;20648;-90
2021/09/12 06:45:46;;;;;;;51.03;11.20;;;14.60;99.90;;;;;;5092032;28;20707;-90
2021/09/12 06:48:13;;;;;;;28.60;10.90;;;14.60;99.90;;;;;;5091469;28;20584;-90
2021/09/12 06:50:40;;;;;;;17.60;11.00;;;14.40;99.90;;;;;;5086993;28;20771;-88
2021/09/12 06:53:08;;;;;;;137.07;14.10;;;14.50;99.90;;;;;;5089691;28;20638;-89
2021/09/12 06:55:35;;;;;;;17.90;9.17;;;14.50;99.90;;;;;;5090499;28;20634;-90
2021/09/12 06:58:02;;;;;;;34.07;10.60;;;14.50;99.90;;;;;;5088348;28;20667;-88
2021/09/12 07:00:31;;;;;;;26.13;11.20;;;14.60;99.90;;;;;;5087755;28;20656;-88
2021/09/12 07:02:58;;;;;;;63.50;11.10;;;14.70;99.90;;;;;;5090022;28;20653;-89
2021/09/12 07:05:25;;;;;;;28.57;10.10;;;14.60;99.90;;;;;;5092397;28;20616;-89
2021/09/12 07:07:53;;;;;;;39.73;11.27;;;14.70;99.90;;;;;;5105569;28;20644;-92
2021/09/12 07:10:21;;;;;;;21.97;9.63;;;14.60;99.90;;;;;;5088876;28;20755;-90
2021/09/12 07:12:49;;;;;;;12.50;8.83;;;14.90;99.90;;;;;;5093197;28;20635;-91
2021/09/12 07:15:16;;;;;;;9.00;8.30;;;14.70;99.90;;;;;;5090902;28;20624;-91
2021/09/12 07:17:46;;;;;;;21.13;9.73;;;14.90;99.90;;;;;;5093735;28;20635;-91
2021/09/12 07:20:14;;;;;;;9.97;9.13;;;15.00;99.90;;;;;;5095314;28;21308;-92
2021/09/12 07:22:41;;;;;;;8.80;8.20;;;15.00;99.90;;;;;;5099892;28;20663;-92
2021/09/12 07:25:09;;;;;;;8.60;7.83;;;15.10;99.90;;;;;;5093002;28;20628;-91
2021/09/12 07:27:38;;;;;;;9.33;8.73;;;15.40;99.90;;;;;;5092426;28;20646;-91
2021/09/12 07:30:06;;;;;;;8.37;7.77;;;15.30;99.90;;;;;;5097531;28;20666;-92
2021/09/12 07:32:36;;;;;;;8.47;7.67;;;15.40;99.90;;;;;;5095640;28;20605;-91
2021/09/12 07:35:04;;;;;;;8.67;8.07;;;15.60;99.90;;;;;;5094839;28;21135;-92
2021/09/12 07:37:31;;;;;;;8.27;7.67;;;15.70;99.90;;;;;;5089179;28;20631;-92
2021/09/12 07:39:58;;;;;;;8.43;7.93;;;15.80;99.90;;;;;;5090611;28;21222;-92
2021/09/12 07:42:46;;;;;;;9.00;8.40;;;15.90;99.90;;;;;;5095805;28;20654;-92
2021/09/12 07:45:15;;;;;;;9.13;8.30;;;15.80;99.90;;;;;;5091699;28;20636;-90
2021/09/12 07:47:42;;;;;;;8.70;8.17;;;15.80;99.90;;;;;;5092335;28;20632;-90
2021/09/12 07:50:13;;;;;;;7.50;7.00;;;15.90;99.90;;;;;;5089828;28;20691;-91
2021/09/12 07:52:43;;;;;;;8.50;8.00;;;16.20;99.90;;;;;;5090546;28;20652;-92
2021/09/12 07:55:12;;;;;;;9.17;8.57;;;16.10;99.90;;;;;;5094185;28;21150;-91
2021/09/12 08:12:27;;;;;;;8.13;7.60;;;16.50;99.90;;;;;;5056710;28;20628;-90
2021/09/12 08:15:33;;;;;;;;;;;;;;;;;;;;;
2021/09/12 08:18:26;;;;;;;8.10;7.60;;;16.50;99.90;;;;;;5092308;28;20639;-90
2021/09/12 08:21:31;;;;;;;8.13;7.63;;;16.60;99.90;;;;;;5097768;28;20650;-91
2021/09/12 08:30:58;;;;;;;6.90;6.40;;;17.30;99.90;;;;;;5091870;28;20660;-91
2021/09/12 08:33:36;;;;;;;6.17;5.77;;;17.30;99.90;;;;;;5091145;28;20624;-91
2021/09/12 08:39:52;;;;;;;6.47;6.00;;;17.80;99.90;;;;;;4996687;28;21047;-92
2021/09/12 08:45:36;;;;;;;5.73;5.33;;;18.30;99.90;;;;;;5093594;28;20655;-90
2021/09/12 08:48:07;;;;;;;5.10;4.80;;;18.30;99.90;;;;;;5100135;28;20624;-91
2021/09/12 08:51:03;;;;;;;6.03;5.63;;;18.30;99.90;;;;;;5090624;28;21097;-90
2021/09/12 08:59:56;;;;;;;4.60;4.20;;;18.70;99.90;;;;;;5092723;28;20648;-91
2021/09/12 09:02:39;;;;;;;4.80;4.50;;;18.70;99.90;;;;;;5090392;28;21046;-90
2021/09/12 09:05:09;;;;;;;5.20;4.80;;;19.10;99.90;;;;;;5094901;28;20632;-90
2021/09/12 09:07:44;;;;;;;4.73;4.43;;;19.00;99.90;;;;;;5097311;28;20644;-91
2021/09/12 09:10:51;;;;;;;4.13;3.83;;;19.30;99.90;;;;;;5093698;28;20686;-90
2021/09/12 09:13:27;;;;;;;3.73;3.50;;;19.20;99.90;;;;;;5098827;28;20693;-91
2021/09/12 09:15:58;;;;;;;4.10;3.80;;;19.40;99.90;;;;;;5092695;28;20669;-91
2021/09/12 09:18:48;;;;;;;4.00;3.70;;;19.70;99.90;;;;;;5089841;28;20708;-91
2021/09/12 09:21:30;;;;;;;4.20;3.87;;;19.50;99.90;;;;;;5097848;28;21186;-90
2021/09/12 09:27:08;;;;;;;3.70;3.50;;;19.90;99.90;;;;;;5012586;28;20655;-90
2021/09/12 09:29:46;;;;;;;4.90;4.10;;;19.60;99.90;;;;;;5011511;28;20635;-88
2021/09/12 09:46:53;;;;;;;;;;;;;;;;;;;;;
2021/09/12 09:52:58;;;;;;;3.13;2.93;;;20.90;99.90;;;;;;5081650;28;20715;-91
2021/09/12 09:58:01;;;;;;;4.20;2.77;;;21.50;99.90;;;;;;5093141;22;20689;-89
2021/09/12 10:00:51;;;;;;;2.80;2.53;;;21.60;99.90;;;;;;5036729;28;20631;-89
2021/09/12 10:03:49;;;;;;;3.20;2.77;;;21.70;99.90;;;;;;5036023;28;20637;-90
2021/09/12 10:06:24;;;;;;;2.50;2.30;;;22.00;99.90;;;;;;5031123;28;20647;-91
2021/09/12 10:11:42;;;;;;;2.23;2.13;;;22.40;99.90;;;;;;5033171;28;20730;-91
2021/09/12 10:14:25;;;;;;;2.23;2.13;;;22.80;99.90;;;;;;5035668;28;20629;-91
2021/09/12 10:20:25;;;;;;;2.10;1.90;;;23.10;99.90;;;;;;5034866;28;20610;-91
2021/09/12 10:26:50;;;;;;;2.77;2.10;;;23.30;99.90;;;;;;4938481;28;20634;-92
2021/09/12 10:37:10;;;;;;;;;;;;;;;;;;;;;
2021/09/12 10:48:22;;;;;;;2.27;2.10;;;24.10;99.90;;;;;;4794862;29;20643;-92
2021/09/12 10:51:30;;;;;;;1.90;1.80;;;24.30;99.90;;;;;;4885860;29;20652;-92
2021/09/12 12:02:39;;;;;;;2.20;2.00;;;28.10;88.70;;;;;;5085598;28;20650;-92
2021/09/12 12:08:21;;;;;;;2.73;2.30;;;27.70;89.50;;;;;;5070213;28;20661;-92
2021/09/12 12:11:39;;;;;;;2.43;1.90;;;27.40;89.20;;;;;;5084455;28;20655;-91
2021/09/12 12:14:36;;;;;;;1.90;1.80;;;27.80;88.20;;;;;;5084696;28;20624;-92
2021/09/12 12:17:07;;;;;;;2.23;1.90;;;27.80;87.20;;;;;;5084543;28;20648;-91
2021/09/12 12:19:43;;;;;;;2.03;1.73;;;27.90;88.20;;;;;;5078795;28;21014;-91
2021/09/12 12:22:25;;;;;;;1.87;1.77;;;28.30;85.00;;;;;;5082520;28;20651;-91
2021/09/12 12:28:30;;;;;;;2.17;2.00;;;28.40;83.00;;;;;;5066095;28;20648;-92
2021/09/12 12:31:17;;;;;;;2.53;1.80;;;28.70;81.40;;;;;;5083903;28;20733;-92
2021/09/12 12:34:03;;;;;;;3.70;1.67;;;29.20;85.10;;;;;;5081900;28;21208;-92
2021/09/12 12:43:19;;;;;;;3.53;1.93;;;28.40;85.90;;;;;;5076103;28;20727;-92
2021/09/12 12:49:28;;;;;;;1.90;1.80;;;30.00;82.60;;;;;;5053722;28;20659;-93
2021/09/12 12:52:20;;;;;;;2.40;1.80;;;31.10;81.10;;;;;;5081238;28;20657;-92
2021/09/12 13:01:10;;;;;;;2.70;2.23;;;30.40;72.80;;;;;;4948163;28;20831;-93
2021/09/12 13:03:43;;;;;;;2.70;1.90;;;28.90;78.70;;;;;;5021587;28;20658;-92
2021/09/12 13:06:35;;;;;;;1.87;1.73;;;27.70;81.60;;;;;;5078403;28;21174;-92
2021/09/12 13:09:28;;;;;;;2.53;1.93;;;27.80;84.70;;;;;;5078173;28;20695;-92
2021/09/12 13:12:39;;;;;;;2.00;1.80;;;28.80;82.80;;;;;;5084653;28;20631;-92
2021/09/12 13:15:28;;;;;;;3.03;2.20;;;29.50;84.10;;;;;;5050567;28;20720;-92
2021/09/12 13:18:21;;;;;;;4.20;1.67;;;29.40;77.30;;;;;;5078103;28;20759;-91
2021/09/12 13:38:18;;;;;;;1.67;1.50;;;32.50;64.70;;;;;;4854513;29;20789;-91
2021/09/12 13:41:06;;;;;;;;;;;;;;;;;;;;;
2021/09/12 13:54:32;;;;;;;1.80;1.60;;;32.40;66.80;;;;;;4926908;28;20203;-91
2021/09/12 13:57:27;;;;;;;1.60;1.50;;;31.80;65.60;;;;;;5078074;28;20205;-91
2021/09/12 14:00:21;;;;;;;2.60;1.57;;;31.50;67.90;;;;;;5080999;28;20296;-91
2021/09/12 14:03:08;;;;;;;2.30;1.40;;;31.50;66.80;;;;;;5081733;28;20209;-91
2021/09/12 14:05:46;;;;;;;2.60;1.60;;;31.60;67.90;;;;;;5078191;28;20640;-91
2021/09/12 14:08:19;;;;;;;1.83;1.57;;;31.60;69.40;;;;;;5080730;28;20226;-92
2021/09/12 14:11:13;;;;;;;2.37;1.40;;;31.50;68.30;;;;;;5083765;28;20198;-92
2021/09/12 14:14:11;;;;;;;1.70;1.60;;;31.00;67.90;;;;;;5088381;28;20296;-91
2021/09/12 14:17:15;;;;;;;1.40;1.30;;;31.80;66.90;;;;;;5078799;28;20210;-93
2021/09/12 14:19:52;;;;;;;2.33;1.50;;;31.60;67.00;;;;;;5072765;28;20641;-91
2021/09/12 14:22:28;;;;;;;1.80;1.70;;;30.70;70.10;;;;;;5080201;28;20202;-91
2021/09/12 14:24:59;;;;;;;2.53;1.70;;;30.40;70.70;;;;;;5083950;28;20726;-91
2021/09/12 14:27:33;;;;;;;1.67;1.57;;;30.20;71.60;;;;;;5080721;28;20651;-91
2021/09/12 14:36:49;;;;;;;2.70;1.63;;;29.80;74.40;;;;;;5081513;28;20624;-91
2021/09/12 14:39:30;;;;;;;2.33;1.90;;;29.90;74.10;;;;;;5085769;28;20642;-91
2021/09/12 14:42:23;;;;;;;2.00;1.80;;;30.50;69.60;;;;;;5089422;28;21051;-92
2021/09/12 14:51:47;;;;;;;3.00;1.80;;;30.80;70.60;;;;;;4994450;28;20630;-92
2021/09/12 14:54:59;;;;;;;2.33;1.90;;;31.20;70.00;;;;;;5027026;28;20717;-91
2021/09/12 14:57:29;;;;;;;3.50;1.80;;;30.70;67.80;;;;;;5080373;28;20772;-92
2021/09/12 15:11:03;;;;;;;3.40;1.70;;;30.70;67.10;;;;;;4944648;28;20229;-91
2021/09/12 15:13:44;;;;;;;2.20;2.00;;;30.20;68.50;;;;;;5044647;28;20613;-91
2021/09/12 15:16:42;;;;;;;1.47;1.37;;;30.20;71.40;;;;;;5082622;28;21028;-91
2021/09/12 15:25:38;;;;;;;2.20;1.63;;;30.30;70.80;;;;;;5013225;28;20696;-91
2021/09/12 15:28:10;;;;;;;2.00;1.70;;;30.20;70.70;;;;;;5079860;28;20651;-91
2021/09/12 15:36:59;;;;;;;2.60;1.70;;;30.70;70.20;;;;;;5114214;28;20607;-96
2021/09/12 15:39:29;;;;;;;2.20;2.00;;;31.10;70.20;;;;;;5112868;28;20634;-96
2021/09/12 15:42:03;;;;;;;2.80;1.70;;;30.90;69.30;;;;;;5101382;28;20197;-96
2021/09/12 15:44:35;;;;;;;2.27;2.07;;;30.60;69.50;;;;;;5094893;28;20229;-96
2021/09/12 15:47:07;;;;;;;2.10;1.60;;;30.60;71.60;;;;;;5097122;28;20647;-96
2021/09/12 15:49:48;;;;;;;2.27;1.80;;;30.60;70.40;;;;;;5112854;27;20614;-96
2021/09/12 15:52:17;;;;;;;1.70;1.60;;;30.60;70.60;;;;;;5106043;28;20611;-96
2021/09/12 15:54:45;;;;;;;2.50;1.83;;;31.10;69.20;;;;;;5095219;28;20660;-96
2021/09/12 16:00:20;;;;;;;3.60;1.67;;;30.80;70.30;;;;;;5102983;28;21162;-96
2021/09/12 16:03:02;;;;;;;2.30;2.10;;;30.70;69.10;;;;;;5088623;28;20740;-96
2021/09/12 16:05:29;;;;;;;2.47;2.27;;;31.00;70.00;;;;;;5082465;28;20668;-96
2021/09/12 16:07:56;;;;;;;1.87;1.63;;;31.20;70.20;;;;;;5086847;28;20620;-95
2021/09/12 16:10:23;;;;;;;2.03;1.87;;;31.30;68.20;;;;;;5083850;28;20636;-95
2021/09/12 16:12:52;;;;;;;1.87;1.67;;;31.20;67.10;;;;;;5087608;28;20619;-94
2021/09/12 16:15:19;;;;;;;1.70;1.60;;;31.20;67.70;;;;;;5086954;28;20708;-95
2021/09/12 16:17:48;;;;;;;2.30;1.80;;;30.90;68.50;;;;;;5086422;28;20631;-94
2021/09/12 16:20:15;;;;;;;2.10;2.00;;;31.00;69.30;;;;;;5090288;28;20639;-94
2021/09/12 16:22:42;;;;;;;2.50;2.20;;;31.10;68.70;;;;;;5085912;28;20608;-93
2021/09/12 16:25:10;;;;;;;2.70;1.70;;;31.10;68.90;;;;;;5079978;28;21066;-94
2021/09/12 16:27:37;;;;;;;2.00;1.90;;;30.80;69.00;;;;;;5095106;28;20669;-96
2021/09/12 16:30:16;;;;;;;1.73;1.63;;;31.20;68.00;;;;;;5104504;28;20608;-96
2021/09/12 16:32:43;;;;;;;3.43;1.80;;;31.10;68.30;;;;;;5112267;22;20727;-96
2021/09/12 16:35:11;;;;;;;2.03;1.67;;;31.20;68.30;;;;;;5069221;28;21061;-96
2021/09/12 16:37:46;;;;;;;3.87;1.53;;;30.80;67.80;;;;;;5068482;28;20625;-96
2021/09/12 16:43:09;;;;;;;4.43;2.53;;;29.00;72.60;;;;;;5065660;28;20657;-95
2021/09/12 16:45:49;;;;;;;3.43;1.70;;;28.30;76.00;;;;;;5070275;28;20690;-94
2021/09/12 16:48:16;;;;;;;2.73;1.83;;;27.70;78.20;;;;;;5064310;28;20608;-93
2021/09/12 16:50:43;;;;;;;2.10;1.93;;;27.00;83.20;;;;;;5062539;28;20640;-92
2021/09/12 16:53:10;;;;;;;7.00;6.70;;;27.50;83.80;;;;;;5061962;28;20646;-92
2021/09/12 16:55:37;;;;;;;7.40;6.93;;;27.70;82.50;;;;;;5055945;28;20636;-92
2021/09/12 16:58:04;;;;;;;7.80;7.40;;;27.30;84.00;;;;;;5058487;28;20637;-93
2021/09/12 17:00:31;;;;;;;7.67;7.37;;;26.60;87.40;;;;;;5064013;28;20617;-94
2021/09/12 17:02:59;;;;;;;6.93;6.60;;;26.50;91.10;;;;;;5062521;28;20661;-93
2021/09/12 17:05:33;;;;;;;2.30;2.13;;;25.40;95.00;;;;;;5071776;28;20652;-94
2021/09/12 17:08:00;;;;;;;3.37;1.93;;;24.50;99.90;;;;;;5067268;28;21309;-96
2021/09/12 17:10:27;;;;;;;6.30;5.90;;;23.90;99.90;;;;;;5067844;28;20640;-96